Time;durP1;ratioP1;P1;durP2;ratioP2;P2;SDS_P1;SDS_P2;PMS_P1;PMS_P2;Temp;Humidity;BMP_temperature;BMP_pressure;BME280_temperature;BME280_humidity;BME280_pressure;Samples;Min_cycle;Max_cycle;Signal;HPM_P1;HPM_P2
2022/08/27 00:01:28;;;;;;;6.18;2.67;;;;;;;26.75;38.35;101872.78;5073823;28;20499;-76
2022/08/27 00:03:54;;;;;;;6.60;2.70;;;;;;;26.99;37.84;101874.88;5073410;28;20023;-76
2022/08/27 00:06:21;;;;;;;7.53;2.65;;;;;;;27.31;37.72;101874.63;5075460;28;20020;-76
2022/08/27 00:08:48;;;;;;;7.53;2.88;;;;;;;26.64;39.03;101876.09;5074831;28;20031;-75
2022/08/27 00:11:16;;;;;;;6.25;2.88;;;;;;;26.42;39.13;101877.41;5069663;28;20025;-76
2022/08/27 00:13:41;;;;;;;7.22;3.08;;;;;;;26.42;39.13;101871.19;5054655;28;20025;-76
2022/08/27 00:16:09;;;;;;;7.07;3.22;;;;;;;26.62;38.86;101869.09;5081884;28;20039;-77
2022/08/27 00:18:35;;;;;;;5.72;2.85;;;;;;;26.96;38.01;101869.72;5090371;28;20089;-76
2022/08/27 00:21:01;;;;;;;10.02;2.92;;;;;;;27.00;37.88;101865.88;5075310;28;20020;-77
2022/08/27 00:23:27;;;;;;;6.95;3.05;;;;;;;26.54;38.50;101867.75;5091612;28;20081;-76
2022/08/27 00:25:52;;;;;;;9.25;2.90;;;;;;;26.70;38.20;101870.38;5086073;28;20462;-76
2022/08/27 00:28:17;;;;;;;7.97;3.10;;;;;;;26.53;39.17;101868.72;5055641;28;20124;-77
2022/08/27 00:30:43;;;;;;;7.95;3.42;;;;;;;26.44;38.93;101863.06;5060947;28;20024;-76
2022/08/27 00:33:08;;;;;;;7.25;3.70;;;;;;;26.27;39.80;101864.06;5075293;28;20024;-76
2022/08/27 00:35:34;;;;;;;7.07;3.78;;;;;;;26.50;38.89;101857.31;5057272;28;20032;-76
2022/08/27 00:38:00;;;;;;;7.07;4.40;;;;;;;26.67;39.25;101864.31;5053943;28;20081;-76
2022/08/27 00:40:26;;;;;;;16.27;4.85;;;;;;;26.37;39.17;101865.25;5055112;28;20078;-76
2022/08/27 00:42:51;;;;;;;10.45;4.60;;;;;;;26.51;39.40;101865.25;5072971;28;20028;-76
2022/08/27 00:45:21;;;;;;;10.65;6.10;;;;;;;26.94;37.89;101856.38;5041802;28;20212;-76
2022/08/27 00:47:53;;;;;;;9.07;4.80;;;;;;;26.67;38.71;101859.81;5035332;28;20031;-76
2022/08/27 00:50:27;;;;;;;9.65;3.80;;;;;;;26.53;38.58;101863.34;5052080;28;20127;-76
2022/08/27 00:52:56;;;;;;;8.93;3.03;;;;;;;26.92;37.25;101853.78;5053586;28;20035;-76
2022/08/27 00:55:30;;;;;;;7.88;3.55;;;;;;;27.05;37.48;101858.38;5053931;28;20507;-75
2022/08/27 00:58:03;;;;;;;9.32;3.75;;;;;;;26.73;38.20;101864.81;5052474;28;20025;-75
2022/08/27 01:00:29;;;;;;;6.50;3.00;;;;;;;26.29;39.23;101864.84;5059373;28;20025;-76
2022/08/27 01:02:54;;;;;;;7.22;3.10;;;;;;;26.46;38.54;101870.06;5051200;28;20024;-76
2022/08/27 01:05:24;;;;;;;9.57;3.13;;;;;;;26.54;38.46;101859.72;5034168;28;20029;-76
2022/08/27 01:07:52;;;;;;;10.20;3.22;;;;;;;26.37;38.72;101867.94;5034783;28;20084;-76
2022/08/27 01:10:20;;;;;;;7.55;3.15;;;;;;;26.39;38.95;101871.34;5051250;28;20028;-76
2022/08/27 01:12:46;;;;;;;6.65;3.38;;;;;;;26.18;39.02;101874.38;5032681;28;20091;-76
2022/08/27 01:15:15;;;;;;;4.95;2.65;;;;;;;26.79;37.74;101870.75;5055552;28;20028;-76
2022/08/27 01:17:43;;;;;;;6.57;2.80;;;;;;;26.81;37.96;101867.03;5070965;28;20020;-76
2022/08/27 01:20:21;;;;;;;4.95;2.80;;;;;;;26.36;38.51;101866.19;5064355;28;20029;-76
2022/08/27 01:23:14;;;;;;;5.07;2.90;;;;;;;26.04;38.97;101860.97;5052273;28;20032;-76
2022/08/27 01:25:42;;;;;;;8.40;3.45;;;;;;;25.84;40.20;101860.28;5037776;28;20033;-76
2022/08/27 01:28:09;;;;;;;5.10;3.00;;;;;;;26.27;39.29;101864.06;5060222;28;20145;-77
2022/08/27 01:30:35;;;;;;;6.70;2.90;;;;;;;26.19;39.91;101857.34;5034481;28;20569;-76
2022/08/27 01:33:13;;;;;;;8.20;2.83;;;;;;;26.04;39.88;101856.44;5051066;28;20543;-76
2022/08/27 01:35:39;;;;;;;4.43;2.60;;;;;;;25.87;40.21;101849.41;5037434;28;20191;-76
2022/08/27 01:38:05;;;;;;;9.15;3.67;;;;;;;26.03;39.55;101859.22;5061570;28;20515;-76
2022/08/27 01:40:31;;;;;;;6.43;2.83;;;;;;;26.11;39.43;101864.13;5033590;28;20017;-77
2022/08/27 01:42:57;;;;;;;7.55;3.72;;;;;;;25.90;39.91;101859.06;5069410;28;20357;-76
2022/08/27 01:45:31;;;;;;;5.93;2.88;;;;;;;26.04;39.83;101856.44;5071842;28;20048;-76
2022/08/27 01:47:58;;;;;;;4.45;2.63;;;;;;;26.16;39.53;101865.59;5044885;28;20024;-76
2022/08/27 01:50:27;;;;;;;6.10;3.00;;;;;;;26.54;38.99;101858.84;5034911;28;20049;-76
2022/08/27 01:52:53;;;;;;;7.05;2.92;;;;;;;26.30;38.91;101866.56;5033995;28;20552;-77
2022/08/27 01:55:22;;;;;;;5.80;3.05;;;;;;;26.56;38.21;101857.78;5032998;28;20107;-77
2022/08/27 01:57:48;;;;;;;7.10;2.95;;;;;;;26.09;39.07;101856.19;5033178;28;20029;-76
2022/08/27 02:00:21;;;;;;;8.65;2.95;;;;;;;26.05;39.93;101857.34;5039873;28;20444;-76
2022/08/27 02:02:47;;;;;;;6.10;3.45;;;;;;;26.07;39.26;101856.25;5049788;28;20108;-76
2022/08/27 02:05:13;;;;;;;6.43;2.72;;;;;;;26.15;38.84;101855.81;5052725;28;20113;-76
2022/08/27 02:07:39;;;;;;;5.68;2.97;;;;;;;26.26;39.33;101854.31;5055695;28;20096;-76
2022/08/27 02:10:07;;;;;;;7.10;2.92;;;;;;;26.14;39.01;101854.09;5049655;28;20059;-76
2022/08/27 02:12:33;;;;;;;7.85;3.35;;;;;;;26.15;38.81;101850.47;5056711;28;20036;-76
2022/08/27 02:14:59;;;;;;;8.73;3.28;;;;;;;25.78;39.84;101849.94;5057755;28;20020;-77
2022/08/27 02:17:24;;;;;;;4.63;2.55;;;;;;;26.59;37.73;101854.91;5040029;28;20025;-76
2022/08/27 02:19:49;;;;;;;6.80;3.10;;;;;;;25.75;40.45;101844.75;5037662;28;20017;-76
2022/08/27 02:22:15;;;;;;;5.43;2.92;;;;;;;25.69;39.92;101845.09;5037556;28;20044;-77
2022/08/27 02:24:41;;;;;;;5.28;2.90;;;;;;;25.50;40.36;101848.84;5063392;28;20024;-77
2022/08/27 02:27:07;;;;;;;7.57;3.03;;;;;;;25.47;40.78;101845.47;5047256;28;20070;-76
2022/08/27 02:29:33;;;;;;;7.13;2.97;;;;;;;25.78;39.69;101841.91;5058582;28;20103;-76
2022/08/27 02:32:00;;;;;;;3.97;2.47;;;;;;;25.68;40.21;101838.03;5037150;28;20036;-77
2022/08/27 02:34:26;;;;;;;3.25;2.42;;;;;;;25.95;39.46;101834.69;5061477;28;20092;-76
2022/08/27 02:36:52;;;;;;;7.90;3.03;;;;;;;25.57;40.40;101836.84;5048374;28;20119;-75
2022/08/27 02:39:18;;;;;;;4.93;2.67;;;;;;;25.66;40.22;101839.94;5057519;28;20040;-77
2022/08/27 02:41:43;;;;;;;4.88;2.53;;;;;;;25.64;39.98;101839.19;5038409;28;20067;-76
2022/08/27 02:44:10;;;;;;;5.00;2.92;;;;;;;25.53;40.33;101829.94;5053283;28;20052;-77
2022/08/27 02:46:35;;;;;;;9.80;2.97;;;;;;;25.61;40.34;101821.47;5036231;28;20029;-76
2022/08/27 02:49:01;;;;;;;3.95;2.63;;;;;;;25.66;40.31;101831.91;5054976;28;20167;-77
2022/08/27 02:51:26;;;;;;;4.25;3.05;;;;;;;25.66;39.78;101827.41;5036545;28;20025;-76
2022/08/27 02:53:53;;;;;;;6.38;3.10;;;;;;;25.57;40.54;101831.50;5055036;28;20035;-77
2022/08/27 02:56:18;;;;;;;7.10;2.58;;;;;;;25.42;39.92;101824.34;5054227;28;20076;-77
2022/08/27 02:58:44;;;;;;;5.05;2.80;;;;;;;25.97;39.13;101822.06;5040947;28;20020;-76
2022/08/27 03:01:10;;;;;;;4.78;2.58;;;;;;;26.07;39.19;101823.28;5064806;28;20021;-77
2022/08/27 03:03:36;;;;;;;5.05;2.58;;;;;;;25.73;39.73;101825.22;5037104;28;20024;-76
2022/08/27 03:06:01;;;;;;;6.47;2.95;;;;;;;25.37;40.20;101821.06;5053715;28;20056;-76
2022/08/27 03:08:27;;;;;;;3.88;3.10;;;;;;;25.68;39.65;101819.31;5036690;28;20477;-76
2022/08/27 03:10:53;;;;;;;6.43;3.10;;;;;;;25.47;40.38;101827.63;5036438;28;20496;-76
2022/08/27 03:13:19;;;;;;;7.47;2.50;;;;;;;25.49;40.57;101822.19;5052494;28;20028;-76
2022/08/27 03:15:44;;;;;;;10.57;2.90;;;;;;;25.72;39.61;101812.81;5051408;28;20036;-76
2022/08/27 03:18:20;;;;;;;7.82;2.83;;;;;;;25.95;39.13;101822.16;5045579;28;20028;-76
2022/08/27 03:20:54;;;;;;;4.03;2.50;;;;;;;25.65;40.02;101823.03;5072770;28;20480;-77
2022/08/27 03:23:23;;;;;;;7.43;2.67;;;;;;;25.59;40.14;101822.50;5074397;28;20024;-76
2022/08/27 03:25:58;;;;;;;6.18;3.20;;;;;;;25.56;40.15;101824.41;5039518;28;20021;-76
2022/08/27 03:28:27;;;;;;;5.65;2.67;;;;;;;25.51;39.90;101823.81;5054165;28;20141;-76
2022/08/27 03:30:59;;;;;;;4.55;3.20;;;;;;;25.42;40.53;101823.47;5054164;28;20028;-77
2022/08/27 03:33:26;;;;;;;5.80;3.28;;;;;;;25.22;40.57;101818.28;5035441;28;20024;-76
2022/08/27 03:35:52;;;;;;;6.35;2.75;;;;;;;25.19;41.24;101810.41;5036220;28;20064;-76
2022/08/27 03:38:17;;;;;;;6.15;2.80;;;;;;;25.36;40.32;101816.66;5044867;28;20500;-76
2022/08/27 03:40:43;;;;;;;6.40;2.88;;;;;;;25.52;39.79;101814.81;5057315;28;20033;-76
2022/08/27 03:43:13;;;;;;;5.60;2.50;;;;;;;25.52;40.16;101817.50;5036223;28;20040;-75
2022/08/27 03:45:42;;;;;;;7.60;2.80;;;;;;;25.56;39.81;101813.69;5054715;28;20044;-76
2022/08/27 03:48:09;;;;;;;8.77;3.13;;;;;;;25.54;39.88;101812.94;5064947;28;20480;-76
2022/08/27 03:50:37;;;;;;;4.25;2.58;;;;;;;25.52;40.00;101816.66;5055950;28;20029;-76
2022/08/27 03:53:03;;;;;;;8.02;2.83;;;;;;;25.75;39.48;101818.00;5055779;28;20033;-77
2022/08/27 03:55:29;;;;;;;4.82;2.40;;;;;;;25.52;39.61;101822.84;5055192;28;20028;-76
2022/08/27 03:57:54;;;;;;;6.13;2.75;;;;;;;25.50;39.60;101814.06;5061918;28;20040;-77
2022/08/27 04:00:19;;;;;;;7.05;2.70;;;;;;;25.53;39.35;101813.88;5063553;28;20059;-77
2022/08/27 04:02:45;;;;;;;5.72;2.58;;;;;;;25.41;39.64;101822.63;5062298;28;20488;-76
2022/08/27 04:05:12;;;;;;;5.10;2.78;;;;;;;25.43;39.87;101817.16;5071592;28;20052;-76
2022/08/27 04:07:41;;;;;;;8.27;2.70;;;;;;;25.19;40.34;101815.78;5072833;28;20574;-76
2022/08/27 04:10:08;;;;;;;6.72;2.83;;;;;;;25.46;39.77;101817.88;5083046;28;20036;-77
2022/08/27 04:12:34;;;;;;;5.40;2.60;;;;;;;25.74;38.68;101818.94;5054870;28;20090;-76
2022/08/27 04:14:59;;;;;;;3.42;2.33;;;;;;;25.69;38.96;101812.97;5085536;28;20031;-77
2022/08/27 04:17:25;;;;;;;5.45;2.78;;;;;;;25.62;39.41;101807.13;5055453;28;20029;-76
2022/08/27 04:19:51;;;;;;;6.57;2.33;;;;;;;25.71;38.73;101805.75;5053754;28;20032;-76
2022/08/27 04:22:17;;;;;;;6.50;3.67;;;;;;;25.23;40.20;101811.97;5059425;28;20024;-76
2022/08/27 04:24:42;;;;;;;3.72;2.00;;;;;;;25.48;38.74;101826.66;5075423;28;20502;-76
2022/08/27 04:27:09;;;;;;;5.40;2.45;;;;;;;24.83;40.87;101824.91;5091963;28;20032;-76
2022/08/27 04:29:35;;;;;;;3.13;2.25;;;;;;;25.04;40.00;101819.31;5092211;28;20020;-77
2022/08/27 04:32:00;;;;;;;3.67;2.58;;;;;;;24.67;41.01;101821.34;5056860;28;20039;-76
2022/08/27 04:34:26;;;;;;;5.53;2.35;;;;;;;24.75;41.27;101832.47;5060479;28;20446;-76
2022/08/27 04:36:54;;;;;;;4.45;2.40;;;;;;;24.68;41.36;101823.06;5053644;28;20036;-76
2022/08/27 04:39:20;;;;;;;8.35;3.13;;;;;;;24.75;40.48;101829.81;5055107;28;20036;-77
2022/08/27 04:41:50;;;;;;;8.60;2.55;;;;;;;25.05;40.41;101837.94;5055247;28;20541;-77
2022/08/27 04:44:16;;;;;;;6.13;2.33;;;;;;;25.46;39.48;101833.94;5066001;28;20041;-77
2022/08/27 04:46:41;;;;;;;4.45;2.22;;;;;;;25.49;38.83;101828.38;5052382;28;20035;-77
2022/08/27 04:49:10;;;;;;;4.50;2.67;;;;;;;25.15;39.61;101832.94;5036411;28;20039;-77
2022/08/27 04:51:36;;;;;;;3.80;2.40;;;;;;;24.56;41.37;101835.25;5048951;28;20150;-76
2022/08/27 04:54:03;;;;;;;3.65;2.65;;;;;;;24.69;40.71;101839.03;5064175;28;20146;-77
2022/08/27 04:56:29;;;;;;;7.10;2.90;;;;;;;24.55;41.85;101839.72;5034520;28;20024;-77
2022/08/27 04:58:55;;;;;;;5.10;2.40;;;;;;;24.89;40.88;101845.97;5038308;28;20028;-76
2022/08/27 05:01:26;;;;;;;4.18;2.50;;;;;;;25.20;40.08;101843.41;5054712;28;20464;-77
2022/08/27 05:03:52;;;;;;;5.70;2.60;;;;;;;25.61;38.63;101840.22;5071179;28;20058;-76
2022/08/27 05:06:18;;;;;;;14.95;3.60;;;;;;;25.21;40.53;101846.00;5070693;28;20059;-77
2022/08/27 05:08:46;;;;;;;7.65;2.88;;;;;;;24.86;41.22;101847.94;5045713;28;20029;-77
2022/08/27 05:11:14;;;;;;;4.28;2.55;;;;;;;24.81;41.20;101848.19;5042409;28;20484;-76
2022/08/27 05:13:41;;;;;;;4.78;2.67;;;;;;;25.22;40.94;101845.06;5039812;28;20020;-77
2022/08/27 05:16:10;;;;;;;6.03;2.40;;;;;;;25.46;40.03;101841.06;5057485;28;20028;-78
2022/08/27 05:18:36;;;;;;;7.40;2.20;;;;;;;25.72;39.42;101836.91;5038674;28;20108;-77
2022/08/27 05:21:03;;;;;;;7.93;3.17;;;;;;;24.78;41.18;101852.84;5070346;28;20020;-77
2022/08/27 05:23:28;;;;;;;7.43;3.10;;;;;;;24.90;41.56;101850.34;5056049;28;20036;-77
2022/08/27 05:25:54;;;;;;;10.15;2.80;;;;;;;25.04;41.39;101854.09;5057343;28;20036;-77
2022/08/27 05:28:22;;;;;;;6.60;2.25;;;;;;;25.08;41.12;101852.13;5063216;28;20046;-77
2022/08/27 05:30:50;;;;;;;6.43;2.63;;;;;;;25.37;40.71;101843.31;5053367;28;20066;-77
2022/08/27 05:33:18;;;;;;;5.82;2.50;;;;;;;25.50;40.44;101839.94;5046573;28;20060;-76
2022/08/27 05:35:49;;;;;;;5.63;2.50;;;;;;;25.10;41.28;101850.19;5034349;28;20043;-77
2022/08/27 05:38:15;;;;;;;6.40;2.45;;;;;;;25.44;40.55;101851.88;5034100;28;20017;-76
2022/08/27 05:40:42;;;;;;;8.27;2.60;;;;;;;25.33;40.72;101846.28;5045349;28;20035;-76
2022/08/27 05:43:08;;;;;;;10.70;3.13;;;;;;;25.53;40.77;101854.03;5050922;28;20025;-77
2022/08/27 05:45:39;;;;;;;7.22;2.90;;;;;;;25.56;40.92;101853.84;5052115;28;20056;-76
2022/08/27 05:48:04;;;;;;;5.95;2.60;;;;;;;25.94;40.13;101849.03;5038967;28;20115;-77
2022/08/27 05:50:30;;;;;;;3.53;1.90;;;;;;;25.77;40.84;101842.84;5053936;28;20123;-77
2022/08/27 05:52:55;;;;;;;4.30;2.25;;;;;;;26.06;40.42;101849.22;5034029;28;20021;-77
2022/08/27 05:55:21;;;;;;;4.40;2.65;;;;;;;25.99;40.43;101846.94;5048219;28;20028;-76
2022/08/27 05:57:46;;;;;;;5.72;2.20;;;;;;;26.62;39.25;101844.97;5034519;28;20039;-77
2022/08/27 06:02:55;;;;;;;4.50;1.73;;;;;;;27.11;38.67;101841.91;5057855;28;20090;-77
2022/08/27 06:05:21;;;;;;;6.28;2.40;;;;;;;26.34;40.05;101834.13;5046531;28;20397;-77
2022/08/27 06:07:46;;;;;;;4.75;2.25;;;;;;;26.80;39.31;101843.84;5033474;28;20032;-77
2022/08/27 06:10:12;;;;;;;8.82;2.53;;;;;;;26.77;39.80;101841.34;5051841;28;20099;-77
2022/08/27 06:12:37;;;;;;;5.63;2.75;;;;;;;27.55;38.60;101846.22;5051558;28;20021;-77
2022/08/27 06:15:03;;;;;;;7.07;3.08;;;;;;;26.83;40.13;101848.16;5032949;28;20033;-78
2022/08/27 06:17:29;;;;;;;7.03;2.33;;;;;;;27.25;39.70;101844.53;5058395;28;20099;-77
2022/08/27 06:19:54;;;;;;;6.85;2.28;;;;;;;26.52;40.78;101850.91;5053726;28;20104;-77
2022/08/27 06:22:20;;;;;;;5.78;2.65;;;;;;;27.65;38.97;101845.59;5052205;28;20074;-77
2022/08/27 06:24:45;;;;;;;7.82;2.22;;;;;;;27.02;40.20;101847.84;5047507;28;20033;-77
2022/08/27 06:27:14;;;;;;;3.58;2.17;;;;;;;27.61;38.93;101844.94;5033492;28;20028;-77
2022/08/27 06:29:40;;;;;;;4.55;2.53;;;;;;;27.34;39.44;101839.53;5042465;28;20400;-77
2022/08/27 06:32:06;;;;;;;5.45;2.38;;;;;;;27.43;39.15;101844.34;5042515;28;20032;-77
2022/08/27 06:34:32;;;;;;;7.68;3.45;;;;;;;28.17;38.09;101852.84;5033844;28;20040;-77
2022/08/27 06:36:58;;;;;;;7.40;2.60;;;;;;;28.70;37.13;101843.81;5032691;28;20033;-77
2022/08/27 06:39:23;;;;;;;8.45;2.50;;;;;;;28.86;36.83;101849.84;5045407;28;20056;-77
2022/08/27 06:41:49;;;;;;;5.07;2.67;;;;;;;28.08;38.46;101848.09;5044575;28;20477;-77
2022/08/27 06:44:15;;;;;;;7.88;3.15;;;;;;;28.19;37.86;101842.84;5049412;28;20050;-76
2022/08/27 06:46:41;;;;;;;4.45;2.58;;;;;;;28.24;38.10;101843.38;5091761;28;20024;-77
2022/08/27 06:49:07;;;;;;;6.32;2.70;;;;;;;27.80;38.47;101844.56;5091534;28;20046;-77
2022/08/27 06:51:35;;;;;;;11.90;2.80;;;;;;;27.90;38.02;101834.94;5059272;28;20491;-77
2022/08/27 06:54:05;;;;;;;7.20;2.72;;;;;;;28.17;37.73;101852.84;5076042;28;20479;-77
2022/08/27 06:56:31;;;;;;;9.15;2.47;;;;;;;29.05;36.09;101843.97;5061863;28;20403;-77
2022/08/27 06:59:01;;;;;;;6.38;2.75;;;;;;;29.26;35.90;101846.97;5062187;28;20055;-77
2022/08/27 07:01:32;;;;;;;5.75;2.33;;;;;;;29.57;35.83;101839.28;5062494;28;20024;-77
2022/08/27 07:04:00;;;;;;;8.18;2.83;;;;;;;28.17;37.31;101852.84;5056565;28;20028;-77
2022/08/27 07:06:28;;;;;;;7.82;2.92;;;;;;;29.43;35.98;101850.25;5074851;28;20032;-77
2022/08/27 07:08:53;;;;;;;8.50;2.95;;;;;;;28.37;37.15;101847.91;5057146;28;20403;-76
2022/08/27 07:11:20;;;;;;;12.82;2.60;;;;;;;29.18;36.51;101854.72;5066307;28;20032;-77
2022/08/27 07:13:46;;;;;;;10.23;3.83;;;;;;;28.85;36.92;101849.94;5066475;28;20032;-76
2022/08/27 07:16:15;;;;;;;11.52;3.45;;;;;;;28.90;36.70;101851.34;5059368;28;20441;-77
2022/08/27 07:18:40;;;;;;;10.85;2.80;;;;;;;28.93;36.58;101851.13;5076245;28;20031;-77
2022/08/27 07:21:07;;;;;;;7.03;2.83;;;;;;;28.85;36.23;101853.50;5076476;28;20049;-77
2022/08/27 07:23:34;;;;;;;9.90;3.05;;;;;;;28.81;36.30;101854.72;5062116;28;20484;-77
2022/08/27 07:26:00;;;;;;;8.25;2.92;;;;;;;29.45;35.49;101850.97;5076413;28;20033;-76
2022/08/27 07:28:26;;;;;;;8.07;3.03;;;;;;;28.09;37.65;101850.66;5070610;28;20110;-77
2022/08/27 07:30:52;;;;;;;9.18;3.47;;;;;;;28.04;37.72;101858.22;5069730;28;20169;-77
2022/08/27 07:33:18;;;;;;;6.13;2.60;;;;;;;27.50;38.61;101859.06;5072993;28;20028;-77
2022/08/27 07:35:45;;;;;;;6.80;3.00;;;;;;;29.24;35.81;101859.69;5064523;28;20035;-76
2022/08/27 07:38:12;;;;;;;6.70;3.20;;;;;;;28.63;36.40;101858.66;5086938;28;20020;-76
2022/08/27 07:40:38;;;;;;;7.32;3.55;;;;;;;29.81;34.99;101861.81;5075511;28;20024;-76
2022/08/27 07:45:55;;;;;;;9.02;4.45;;;;;;;30.45;33.37;101872.22;5059061;28;20101;-76
2022/08/27 07:48:22;;;;;;;10.27;4.80;;;;;;;29.98;34.29;101863.22;5061901;28;20045;-76
2022/08/27 07:50:49;;;;;;;10.70;3.63;;;;;;;28.13;36.57;101867.44;5031115;28;20725;-76
2022/08/27 07:53:14;;;;;;;7.22;3.70;;;;;;;29.28;35.08;101866.56;5038494;28;20028;-76
2022/08/27 07:55:39;;;;;;;8.75;4.13;;;;;;;31.03;32.85;101873.97;5042810;28;20032;-76
2022/08/27 07:58:05;;;;;;;6.22;2.60;;;;;;;31.56;31.99;101874.09;5064656;28;20055;-77
2022/08/27 08:00:32;;;;;;;6.93;2.70;;;;;;;29.61;33.75;101881.19;5055105;28;20059;-76
2022/08/27 08:02:57;;;;;;;5.28;2.45;;;;;;;29.07;34.67;101878.84;5058400;28;20082;-76
2022/08/27 08:05:23;;;;;;;4.03;2.20;;;;;;;30.93;32.82;101877.38;5047462;28;20024;-76
2022/08/27 08:07:50;;;;;;;9.25;2.75;;;;;;;30.34;32.48;101886.50;5052043;28;20025;-76
2022/08/27 08:10:16;;;;;;;6.63;2.50;;;;;;;31.82;31.57;101883.72;5053402;28;20036;-76
2022/08/27 08:12:42;;;;;;;7.45;3.03;;;;;;;31.04;32.22;101897.28;5053334;28;20017;-76
2022/08/27 08:15:09;;;;;;;8.82;2.08;;;;;;;31.07;32.91;101894.31;5034321;28;20086;-76
2022/08/27 08:17:36;;;;;;;4.10;1.80;;;;;;;30.87;31.05;101896.75;5039039;28;20043;-77
2022/08/27 08:20:03;;;;;;;4.43;2.10;;;;;;;30.52;31.12;101900.41;5039998;28;20024;-76
2022/08/27 08:22:28;;;;;;;7.47;1.70;;;;;;;31.43;30.73;101895.00;5059765;28;20115;-75
2022/08/27 08:24:54;;;;;;;4.55;1.50;;;;;;;30.08;31.35;101896.59;5039135;28;20111;-76
2022/08/27 08:27:19;;;;;;;5.43;2.17;;;;;;;32.43;28.65;101888.44;5035542;28;20036;-76
2022/08/27 08:29:46;;;;;;;4.75;1.52;;;;;;;32.08;29.33;101889.59;5034116;28;20036;-76
2022/08/27 08:32:11;;;;;;;7.40;1.92;;;;;;;33.38;28.22;101889.16;5035433;28;20025;-76
2022/08/27 08:34:37;;;;;;;3.17;1.30;;;;;;;32.24;29.45;101890.03;5063334;28;20025;-76
2022/08/27 08:37:04;;;;;;;2.47;1.13;;;;;;;32.83;28.22;101884.97;5072996;28;20024;-76
2022/08/27 08:39:29;;;;;;;4.90;1.30;;;;;;;32.80;27.28;101890.66;5056799;28;20465;-76
2022/08/27 08:41:58;;;;;;;6.78;1.70;;;;;;;30.76;28.69;101896.75;5053059;28;20104;-76
2022/08/27 08:44:30;;;;;;;2.72;1.48;;;;;;;31.16;29.53;101899.00;5058998;28;20048;-76
2022/08/27 08:47:02;;;;;;;3.80;1.00;;;;;;;31.09;28.25;101897.75;5055192;28;20032;-76
2022/08/27 08:49:55;;;;;;;2.70;1.20;;;;;;;31.53;27.85;101890.56;5051966;28;20058;-76
2022/08/27 08:52:33;;;;;;;4.88;1.10;;;;;;;31.77;28.09;101903.88;5035065;28;20389;-76
2022/08/27 08:55:14;;;;;;;5.15;1.20;;;;;;;30.65;29.40;101912.94;5034616;28;20047;-76
2022/08/27 08:57:56;;;;;;;6.78;1.00;;;;;;;32.60;27.44;101901.38;5052280;28;20025;-77
2022/08/27 09:00:22;;;;;;;;;;;;;;;33.04;26.09;101905.69;5035901;28;20119;-76
2022/08/27 09:02:53;;;;;;;3.75;1.13;;;;;;;31.06;28.56;101906.94;5035593;28;19916;-76
2022/08/27 09:05:19;;;;;;;4.53;0.98;;;;;;;30.41;29.19;101908.44;5046348;28;20111;-76
2022/08/27 09:08:05;;;;;;;6.07;1.38;;;;;;;31.57;27.58;101897.41;5072723;28;20082;-76
2022/08/27 09:10:42;;;;;;;5.28;1.13;;;;;;;30.41;28.76;101905.75;5052568;28;20383;-75
2022/08/27 09:13:21;;;;;;;7.30;1.30;;;;;;;30.45;29.15;101904.56;5054154;28;20094;-76
2022/08/27 09:15:47;;;;;;;4.38;0.70;;;;;;;29.44;30.55;101913.88;5052611;28;20031;-75
2022/08/27 09:18:15;;;;;;;5.03;0.90;;;;;;;29.39;31.60;101913.38;5052852;28;20032;-76
2022/08/27 09:20:45;;;;;;;3.72;1.05;;;;;;;31.49;28.94;101917.94;5050315;28;20028;-76
2022/08/27 09:23:20;;;;;;;4.40;1.58;;;;;;;29.66;29.78;101923.06;5034228;28;20020;-75
2022/08/27 09:25:46;;;;;;;6.05;1.50;;;;;;;31.68;28.09;101911.91;5033612;28;20025;-75
2022/08/27 09:31:05;;;;;;;4.47;1.10;;;;;;;33.51;26.20;101918.66;5067618;28;20086;-76
2022/08/27 09:33:31;;;;;;;3.95;0.95;;;;;;;31.02;29.25;101918.97;5044781;28;20120;-76
2022/08/27 09:36:02;;;;;;;3.67;1.10;;;;;;;31.82;28.33;101911.63;5052037;28;20070;-75
2022/08/27 09:38:30;;;;;;;5.93;1.25;;;;;;;32.87;26.58;101918.88;5051362;28;20035;-76
2022/08/27 09:41:00;;;;;;;11.30;2.33;;;;;;;31.70;28.15;101920.75;5033640;28;20108;-78
2022/08/27 09:43:27;;;;;;;5.55;1.52;;;;;;;30.84;29.31;101926.66;5034098;28;20500;-76
2022/08/27 09:45:56;;;;;;;6.30;1.17;;;;;;;30.51;29.62;101914.88;5050632;28;20053;-76
2022/08/27 09:48:34;;;;;;;2.75;1.23;;;;;;;31.28;28.69;101908.78;5034256;28;20104;-76
2022/08/27 09:51:12;;;;;;;3.85;1.10;;;;;;;33.34;26.15;101914.81;5036715;28;20404;-76
2022/08/27 09:53:49;;;;;;;2.55;0.98;;;;;;;29.69;30.31;101910.25;5071354;28;20111;-75
2022/08/27 09:56:48;;;;;;;2.67;1.17;;;;;;;31.03;29.44;101909.06;5070762;28;20074;-76
2022/08/27 09:59:34;;;;;;;8.23;2.22;;;;;;;31.52;29.15;101901.47;5053781;28;20391;-76
2022/08/27 10:02:17;;;;;;;3.63;1.00;;;;;;;32.54;27.31;101901.88;5037474;28;20481;-76
2022/08/27 10:04:49;;;;;;;3.08;1.00;;;;;;;32.45;27.56;101897.28;5055721;28;20050;-76
2022/08/27 10:07:32;;;;;;;6.72;1.17;;;;;;;32.97;26.89;101899.97;5050172;28;20087;-76
2022/08/27 10:10:16;;;;;;;2.83;1.40;;;;;;;31.02;27.83;101910.00;5053687;28;20098;-76
2022/08/27 10:13:02;;;;;;;3.30;0.90;;;;;;;29.76;30.11;101913.34;5061337;28;20496;-76
2022/08/27 10:15:46;;;;;;;6.35;1.35;;;;;;;30.93;28.82;101909.75;5041707;28;20139;-76
2022/08/27 10:18:24;;;;;;;6.50;1.60;;;;;;;30.50;29.79;101913.16;5032738;28;20024;-76
2022/08/27 10:21:02;;;;;;;5.72;1.20;;;;;;;31.10;29.61;101904.88;5051638;28;20037;-76
2022/08/27 10:23:40;;;;;;;4.70;1.30;;;;;;;31.78;29.24;101899.34;5046035;28;20410;-76
2022/08/27 10:26:06;;;;;;;5.07;1.08;;;;;;;29.86;30.72;101903.63;5034495;28;20032;-76
2022/08/27 10:28:57;;;;;;;5.70;1.85;;;;;;;30.53;29.78;101902.13;5037199;28;20040;-76
2022/08/27 10:31:29;;;;;;;3.20;1.30;;;;;;;32.32;28.01;101891.25;5037500;28;20039;-76
2022/08/27 10:34:06;;;;;;;3.50;1.25;;;;;;;31.85;28.53;101884.31;5036556;28;20021;-76
2022/08/27 10:36:44;;;;;;;5.15;1.13;;;;;;;32.41;28.04;101890.41;5070814;28;20103;-75
2022/08/27 10:39:45;;;;;;;2.72;1.10;;;;;;;31.51;28.87;101897.91;5057427;28;20028;-76
2022/08/27 10:42:43;;;;;;;6.05;1.35;;;;;;;31.59;29.37;101897.31;5048357;28;20040;-76
2022/08/27 10:45:27;;;;;;;5.75;1.10;;;;;;;31.87;28.43;101895.84;5073014;28;20037;-77
2022/08/27 10:48:26;;;;;;;3.72;1.08;;;;;;;30.66;30.11;101906.56;5075087;28;20094;-76
2022/08/27 10:51:23;;;;;;;6.03;0.98;;;;;;;32.47;27.99;101895.31;5038520;28;20059;-75
2022/08/27 10:53:48;;;;;;;4.72;1.50;;;;;;;32.07;29.02;101893.31;5057095;28;20028;-76
2022/08/27 10:56:34;;;;;;;3.50;1.60;;;;;;;32.69;27.73;101898.84;5046704;28;20043;-76
2022/08/27 10:59:23;;;;;;;6.05;1.40;;;;;;;32.61;27.75;101896.81;5074627;28;20024;-76
2022/08/27 11:02:05;;;;;;;4.05;1.17;;;;;;;31.69;29.13;101897.41;5056204;28;20036;-76
2022/08/27 11:04:42;;;;;;;2.95;1.25;;;;;;;33.21;27.19;101898.75;5050767;28;20033;-76
2022/08/27 11:07:23;;;;;;;4.85;1.02;;;;;;;33.40;26.16;101903.41;5054460;28;20063;-76
2022/08/27 11:09:58;;;;;;;7.95;1.00;;;;;;;31.27;28.74;101901.66;5036619;28;20024;-76
2022/08/27 11:12:30;;;;;;;10.07;1.38;;;;;;;32.24;28.53;101894.59;5035202;28;20477;-76
2022/08/27 11:14:55;;;;;;;5.28;1.20;;;;;;;31.34;29.44;101907.41;5057739;28;20096;-77
2022/08/27 11:17:36;;;;;;;3.75;1.30;;;;;;;31.79;29.02;101882.13;5048299;28;20123;-77
2022/08/27 11:20:14;;;;;;;4.07;1.10;;;;;;;33.77;26.66;101890.06;5056567;28;20432;-76
2022/08/27 11:22:49;;;;;;;3.35;1.00;;;;;;;33.00;27.23;101890.72;5056809;28;20124;-77
2022/08/27 11:25:33;;;;;;;4.13;1.17;;;;;;;33.67;26.31;101889.16;5045191;28;20484;-77
2022/08/27 11:27:59;;;;;;;3.28;1.00;;;;;;;33.25;26.57;101890.25;5069273;28;20060;-77
2022/08/27 11:30:44;;;;;;;11.90;1.25;;;;;;;31.65;28.10;101898.66;5053719;28;20036;-77
2022/08/27 11:33:45;;;;;;;2.63;1.08;;;;;;;30.50;29.59;101902.38;5055826;28;20035;-77
2022/08/27 11:36:13;;;;;;;10.40;1.73;;;;;;;30.96;29.15;101898.69;5058615;28;20124;-76
2022/08/27 11:38:42;;;;;;;5.25;1.15;;;;;;;33.30;27.09;101888.00;5053677;28;20025;-77
2022/08/27 11:41:45;;;;;;;4.18;1.05;;;;;;;32.71;26.54;101891.47;5035542;28;20091;-77
2022/08/27 11:44:13;;;;;;;6.63;1.30;;;;;;;31.90;27.48;101890.22;5062883;28;20174;-78